Clockville, New York
Current Conditions -  °F | °C
As of 2:54 AM on Friday 31 Oct 2014 (Local Time) from KSYR Reporting Station
Light Rain Light Rain  
Wind Chill: 40°   Ceiling: 5500
Heat Index: 40°   Visibility: 10mi
Dew Point: 36°   Wind: 3mph
Humidity: 86%   Direction: 150°SSE
Pressure: 30.02"   Gusts: NA
Location:  43.04°N, 75.74°W
Report Text: KSYR 310654Z 15003KT 10SM -RA FEW032 BKN055 04/02 A3002 RMK AO2 SLP164 P0000 T00440022
Loading
Personal Weather Stations






























Interactive Weather Map
Tropical Storm Tracking
New forecast layout! Learn more

10-Day Weather Forecast

Advertisements
Track Severe Weather on mobile